Terminal Aerodrome Forecast
Issued by NWS

Home | Current Version | Previous Version | Text Only | Print | Product List | Glossary On
Versions: 1 2 3 4 5 6 7 8 9 10 11 12 13 14 15 16
822
FTUS46 KMFR 242339
TAFOTH
TAF
KOTH 242339Z 2500/2524 22014G20KT P6SM -SHRA BKN020 OVC050
     FM250300 19008KT P6SM VCSH SCT020 OVC040
     FM251900 23008KT P6SM SCT050 BKN100=

USA.gov is the U.S. government's official web portal to all federal, state and local government web resources and services.